^^
Station Historical Data
Daily Summary for July 23, 2017 Units:  Both    English   Metric
« Previous Day
Next Day »
Daily Weekly Monthly Yearly Custom
  High: Low: Average:
Temperature: 75.6 °F /  24.2 °C 40.8 °F /  4.9 °C 57 °F /  13.9 °C
Dew Point: 24.8 °F /  -4 °C 14.0 °F /  -10 °C 18.3 °F /  -7.6 °C
Humidity: 47% 10% 25%
Wind Speed: 6.0mph /  9.7km/h - 0.6mph /  1km/h
Wind Gust: 10.0mph /  16.1km/h - -
Wind- - East
Pressure: 30.15 in /  1020.9 hPa 30.05 in /  1017.5 hPa -
Precipitation: 0.00 in /  0 mm    
Historical Graphs
 
 
Tabular Data for July 23, 2017
Time Temperature Dew Point Pressure Wind Wind Speed Wind Gust Humidity Rainfall Rate (Hourly) solar Conditions
00:00 44.4 °F /  6.9 °C 19.8 °F /  -6.8 °C 30.09in /  1018.8hPa Calm   3.0mph /  4.8km/h 37% 0.00in /  0mm 0.0 W/m2
00:06 44.8 °F /  7.1 °C 19.4 °F /  -7 °C 30.09in /  1018.8hPa Calm   1.0mph /  1.6km/h 36% 0.00in /  0mm 0.0 W/m2
00:12 45.0 °F /  7.2 °C 20.3 °F /  -6.5 °C 30.09in /  1018.8hPa Calm     37% 0.00in /  0mm 0.0 W/m2
00:18 45.3 °F /  7.4 °C 19.9 °F /  -6.7 °C 30.09in /  1018.8hPa Calm   1.0mph /  1.6km/h 36% 0.00in /  0mm 0.0 W/m2
00:24 45.7 °F /  7.6 °C 19.6 °F /  -6.9 °C 30.09in /  1018.8hPa Calm   2.0mph /  3.2km/h 35% 0.00in /  0mm 0.0 W/m2
00:30 45.9 °F /  7.7 °C 19.8 °F /  -6.8 °C 30.09in /  1018.8hPa Calm   1.0mph /  1.6km/h 35% 0.00in /  0mm 0.0 W/m2
00:37 45.9 °F /  7.7 °C 20.5 °F /  -6.4 °C 30.09in /  1018.8hPa Calm     36% 0.00in /  0mm 0.0 W/m2
00:43 45.9 °F /  7.7 °C 20.5 °F /  -6.4 °C 30.09in /  1018.8hPa Calm     36% 0.00in /  0mm 0.0 W/m2
00:49 45.7 °F /  7.6 °C 20.3 °F /  -6.5 °C 30.09in /  1018.8hPa Calm   2.0mph /  3.2km/h 36% 0.00in /  0mm 0.0 W/m2
00:55 45.5 °F /  7.5 °C 20.1 °F /  -6.6 °C 30.09in /  1018.8hPa East 0.9mph /  1.4km/h 2.0mph /  3.2km/h 36% 0.00in /  0mm 0.0 W/m2
01:01 45.7 °F /  7.6 °C 20.3 °F /  -6.5 °C 30.08in /  1018.5hPa East 0.9mph /  1.4km/h 1.0mph /  1.6km/h 36% 0.00in /  0mm 0.0 W/m2
01:07 45.9 °F /  7.7 °C 19.8 °F /  -6.8 °C 30.08in /  1018.5hPa Calm     35% 0.00in /  0mm 0.0 W/m2
01:13 45.9 °F /  7.7 °C 20.5 °F /  -6.4 °C 30.08in /  1018.5hPa Calm     36% 0.00in /  0mm 0.0 W/m2
01:19 46.0 °F /  7.8 °C 19.9 °F /  -6.7 °C 30.08in /  1018.5hPa Calm   1.0mph /  1.6km/h 35% 0.00in /  0mm 0.0 W/m2
01:25 46.0 °F /  7.8 °C 20.5 °F /  -6.4 °C 30.07in /  1018.2hPa Calm     36% 0.00in /  0mm 0.0 W/m2
01:32 45.9 °F /  7.7 °C 21.0 °F /  -6.1 °C 30.07in /  1018.2hPa Calm     37% 0.00in /  0mm 0.0 W/m2
01:38 45.3 °F /  7.4 °C 21.2 °F /  -6 °C 30.07in /  1018.2hPa Calm     38% 0.00in /  0mm 0.0 W/m2
01:44 44.8 °F /  7.1 °C 20.7 °F /  -6.3 °C 30.07in /  1018.2hPa Calm     38% 0.00in /  0mm 0.0 W/m2
01:50 44.2 °F /  6.8 °C 20.8 °F /  -6.2 °C 30.07in /  1018.2hPa Calm     39% 0.00in /  0mm 0.0 W/m2
01:56 43.9 °F /  6.6 °C 20.5 °F /  -6.4 °C 30.07in /  1018.2hPa Calm     39% 0.00in /  0mm 0.0 W/m2
02:02 43.9 °F /  6.6 °C 21.2 °F /  -6 °C 30.07in /  1018.2hPa Calm     40% 0.00in /  0mm 0.0 W/m2
02:08 43.7 °F /  6.5 °C 21.6 °F /  -5.8 °C 30.07in /  1018.2hPa Calm     41% 0.00in /  0mm 0.0 W/m2
02:15 43.7 °F /  6.5 °C 21.0 °F /  -6.1 °C 30.07in /  1018.2hPa Calm     40% 0.00in /  0mm 0.0 W/m2
02:21 43.5 °F /  6.4 °C 20.1 °F /  -6.6 °C 30.07in /  1018.2hPa Calm   1.0mph /  1.6km/h 39% 0.00in /  0mm 0.0 W/m2
02:27 43.5 °F /  6.4 °C 20.1 °F /  -6.6 °C 30.07in /  1018.2hPa Calm     39% 0.00in /  0mm 0.0 W/m2
02:33 43.5 °F /  6.4 °C 21.4 °F /  -5.9 °C 30.07in /  1018.2hPa Calm     41% 0.00in /  0mm 0.0 W/m2
02:39 43.2 °F /  6.2 °C 21.0 °F /  -6.1 °C 30.07in /  1018.2hPa Calm     41% 0.00in /  0mm 0.0 W/m2
02:45 42.8 °F /  6 °C 20.7 °F /  -6.3 °C 30.07in /  1018.2hPa Calm     41% 0.00in /  0mm 0.0 W/m2
02:51 42.4 °F /  5.8 °C 21.0 °F /  -6.1 °C 30.06in /  1017.8hPa Calm     42% 0.00in /  0mm 0.0 W/m2
02:57 42.1 °F /  5.6 °C 20.7 °F /  -6.3 °C 30.07in /  1018.2hPa Calm     42% 0.00in /  0mm 0.0 W/m2
03:04 42.1 °F /  5.6 °C 20.1 °F /  -6.6 °C 30.06in /  1017.8hPa Calm     41% 0.00in /  0mm 0.0 W/m2
03:10 41.7 °F /  5.4 °C 20.3 °F /  -6.5 °C 30.06in /  1017.8hPa Calm     42% 0.00in /  0mm 0.0 W/m2
03:16 41.5 °F /  5.3 °C 20.7 °F /  -6.3 °C 30.06in /  1017.8hPa Calm   1.0mph /  1.6km/h 43% 0.00in /  0mm 0.0 W/m2
03:22 41.4 °F /  5.2 °C 20.5 °F /  -6.4 °C 30.06in /  1017.8hPa Calm     43% 0.00in /  0mm 0.0 W/m2
03:28 41.2 °F /  5.1 °C 20.3 °F /  -6.5 °C 30.06in /  1017.8hPa Calm     43% 0.00in /  0mm 0.0 W/m2
03:34 41.0 °F /  5 °C 20.8 °F /  -6.2 °C 30.06in /  1017.8hPa Calm     44% 0.00in /  0mm 0.0 W/m2
03:40 40.8 °F /  4.9 °C 21.2 °F /  -6 °C 30.06in /  1017.8hPa Calm     45% 0.00in /  0mm 0.0 W/m2
03:46 40.8 °F /  4.9 °C 21.6 °F /  -5.8 °C 30.06in /  1017.8hPa Calm     46% 0.00in /  0mm 0.0 W/m2
03:53 40.8 °F /  4.9 °C 21.6 °F /  -5.8 °C 30.06in /  1017.8hPa Calm     46% 0.00in /  0mm 0.0 W/m2
03:59 41.0 °F /  5 °C 22.3 °F /  -5.4 °C 30.06in /  1017.8hPa Calm     47% 0.00in /  0mm 0.0 W/m2
04:05 40.8 °F /  4.9 °C 21.2 °F /  -6 °C 30.06in /  1017.8hPa Calm     45% 0.00in /  0mm 0.0 W/m2
04:11 41.0 °F /  5 °C 21.7 °F /  -5.7 °C 30.06in /  1017.8hPa Calm     46% 0.00in /  0mm 0.0 W/m2
04:17 41.0 °F /  5 °C 21.2 °F /  -6 °C 30.06in /  1017.8hPa Calm     45% 0.00in /  0mm 0.0 W/m2
04:23 40.8 °F /  4.9 °C 20.1 °F /  -6.6 °C 30.06in /  1017.8hPa Calm   1.0mph /  1.6km/h 43% 0.00in /  0mm 0.0 W/m2
04:29 41.0 °F /  5 °C 20.8 °F /  -6.2 °C 30.06in /  1017.8hPa Calm     44% 0.00in /  0mm 0.0 W/m2
04:36 41.2 °F /  5.1 °C 21.4 °F /  -5.9 °C 30.06in /  1017.8hPa Calm     45% 0.00in /  0mm 0.0 W/m2
04:42 41.2 °F /  5.1 °C 21.9 °F /  -5.6 °C 30.07in /  1018.2hPa Calm     46% 0.00in /  0mm 0.0 W/m2
04:48 41.2 °F /  5.1 °C 21.4 °F /  -5.9 °C 30.07in /  1018.2hPa Calm     45% 0.00in /  0mm 0.0 W/m2
04:54 41.2 °F /  5.1 °C 22.5 °F /  -5.3 °C 30.07in /  1018.2hPa Calm     47% 0.00in /  0mm 0.0 W/m2
05:00 41.2 °F /  5.1 °C 20.8 °F /  -6.2 °C 30.07in /  1018.2hPa Calm     44% 0.00in /  0mm 0.0 W/m2
05:06 41.2 °F /  5.1 °C 21.9 °F /  -5.6 °C 30.07in /  1018.2hPa Calm     46% 0.00in /  0mm 0.0 W/m2
05:13 41.2 °F /  5.1 °C 21.4 °F /  -5.9 °C 30.07in /  1018.2hPa Calm   1.0mph /  1.6km/h 45% 0.00in /  0mm 0.0 W/m2
05:19 41.0 °F /  5 °C 21.2 °F /  -6 °C 30.07in /  1018.2hPa Calm     45% 0.00in /  0mm 0.0 W/m2
05:25 41.2 °F /  5.1 °C 20.8 °F /  -6.2 °C 30.07in /  1018.2hPa Calm     44% 0.00in /  0mm 0.0 W/m2
05:31 41.2 °F /  5.1 °C 20.8 °F /  -6.2 °C 30.08in /  1018.5hPa Calm   1.0mph /  1.6km/h 44% 0.00in /  0mm 0.0 W/m2
05:37 41.2 °F /  5.1 °C 19.8 °F /  -6.8 °C 30.08in /  1018.5hPa Calm   2.0mph /  3.2km/h 42% 0.00in /  0mm 0.0 W/m2
05:43 41.4 °F /  5.2 °C 20.5 °F /  -6.4 °C 30.08in /  1018.5hPa Calm     43% 0.00in /  0mm 0.0 W/m2
05:49 41.4 °F /  5.2 °C 21.6 °F /  -5.8 °C 30.08in /  1018.5hPa Calm     45% 0.00in /  0mm 0.0 W/m2
05:56 41.4 °F /  5.2 °C 20.5 °F /  -6.4 °C 30.08in /  1018.5hPa Calm     43% 0.00in /  0mm 0.0 W/m2
06:04 41.4 °F /  5.2 °C 19.9 °F /  -6.7 °C 30.08in /  1018.5hPa Calm     42% 0.00in /  0mm 0.0 W/m2
06:10 41.4 °F /  5.2 °C 20.5 °F /  -6.4 °C 30.08in /  1018.5hPa Calm   2.0mph /  3.2km/h 43% 0.00in /  0mm 0.0 W/m2
06:16 41.4 °F /  5.2 °C 19.9 °F /  -6.7 °C 30.09in /  1018.8hPa Calm     42% 0.00in /  0mm 0.0 W/m2
06:22 41.7 °F /  5.4 °C 20.3 °F /  -6.5 °C 30.09in /  1018.8hPa Calm   2.0mph /  3.2km/h 42% 0.00in /  0mm 0.0 W/m2
06:28 42.3 °F /  5.7 °C 20.3 °F /  -6.5 °C 30.09in /  1018.8hPa Calm     41% 0.00in /  0mm 0.0 W/m2
06:34 42.4 °F /  5.8 °C 20.5 °F /  -6.4 °C 30.09in /  1018.8hPa Calm     41% 0.00in /  0mm 5.0 W/m2
06:40 42.3 °F /  5.7 °C 20.8 °F /  -6.2 °C 30.09in /  1018.8hPa Calm     42% 0.00in /  0mm 7.0 W/m2
06:46 42.3 °F /  5.7 °C 19.6 °F /  -6.9 °C 30.10in /  1019.2hPa Calm     40% 0.00in /  0mm 9.0 W/m2
06:53 42.1 °F /  5.6 °C 19.6 °F /  -6.9 °C 30.10in /  1019.2hPa Calm   1.0mph /  1.6km/h 40% 0.00in /  0mm 12.0 W/m2
06:59 41.7 °F /  5.4 °C 19.8 °F /  -6.8 °C 30.10in /  1019.2hPa Calm     41% 0.00in /  0mm 12.0 W/m2
07:05 41.5 °F /  5.3 °C 20.1 °F /  -6.6 °C 30.11in /  1019.5hPa Calm     42% 0.00in /  0mm 14.0 W/m2
07:11 41.5 °F /  5.3 °C 21.2 °F /  -6 °C 30.11in /  1019.5hPa Calm     44% 0.00in /  0mm 16.0 W/m2
07:17 41.4 °F /  5.2 °C 21.0 °F /  -6.1 °C 30.11in /  1019.5hPa Calm     44% 0.00in /  0mm 16.0 W/m2
07:23 41.4 °F /  5.2 °C 22.6 °F /  -5.2 °C 30.11in /  1019.5hPa Calm     47% 0.00in /  0mm 18.0 W/m2
07:29 41.5 °F /  5.3 °C 21.7 °F /  -5.7 °C 30.11in /  1019.5hPa Calm     45% 0.00in /  0mm 19.0 W/m2
07:36 42.3 °F /  5.7 °C 21.9 °F /  -5.6 °C 30.11in /  1019.5hPa Calm     44% 0.00in /  0mm 21.0 W/m2
07:42 43.2 °F /  6.2 °C 22.6 °F /  -5.2 °C 30.12in /  1019.9hPa Calm     44% 0.00in /  0mm 23.0 W/m2
07:48 44.1 °F /  6.7 °C 23.5 °F /  -4.7 °C 30.12in /  1019.9hPa Calm     44% 0.00in /  0mm 23.0 W/m2
07:54 45.0 °F /  7.2 °C 23.7 °F /  -4.6 °C 30.12in /  1019.9hPa Calm     43% 0.00in /  0mm 25.0 W/m2
08:00 46.6 °F /  8.1 °C 24.1 °F /  -4.4 °C 30.13in /  1020.2hPa Calm     41% 0.00in /  0mm 25.0 W/m2
08:06 48.0 °F /  8.9 °C 24.3 °F /  -4.3 °C 30.13in /  1020.2hPa Calm     39% 0.00in /  0mm 26.0 W/m2
08:13 49.5 °F /  9.7 °C 23.0 °F /  -5 °C 30.13in /  1020.2hPa Calm     35% 0.00in /  0mm 28.0 W/m2
08:19 51.6 °F /  10.9 °C 23.4 °F /  -4.8 °C 30.13in /  1020.2hPa Calm     33% 0.00in /  0mm 352.0 W/m2
08:25 54.0 °F /  12.2 °C 24.8 °F /  -4 °C 30.13in /  1020.2hPa Calm     32% 0.00in /  0mm 371.0 W/m2
08:31 55.2 °F /  12.9 °C 22.6 °F /  -5.2 °C 30.13in /  1020.2hPa Calm     28% 0.00in /  0mm 390.0 W/m2
08:37 56.8 °F /  13.8 °C 22.3 °F /  -5.4 °C 30.14in /  1020.5hPa Calm     26% 0.00in /  0mm 411.0 W/m2
08:43 58.5 °F /  14.7 °C 21.7 °F /  -5.7 °C 30.14in /  1020.5hPa Calm     24% 0.00in /  0mm 432.0 W/m2
08:49 60.4 °F /  15.8 °C 21.4 °F /  -5.9 °C 30.14in /  1020.5hPa East 2.0mph /  3.2km/h 5.0mph /  8km/h 22% 0.00in /  0mm 452.0 W/m2
08:55 62.4 °F /  16.9 °C 19.6 °F /  -6.9 °C 30.14in /  1020.5hPa NE 0.9mph /  1.4km/h 4.0mph /  6.4km/h 19% 0.00in /  0mm 469.0 W/m2
09:01 64.2 °F /  17.9 °C 19.8 °F /  -6.8 °C 30.14in /  1020.5hPa ENE 0.9mph /  1.4km/h 5.0mph /  8km/h 18% 0.00in /  0mm 487.0 W/m2
09:08 65.7 °F /  18.7 °C 19.6 °F /  -6.9 °C 30.15in /  1020.9hPa SE 2.0mph /  3.2km/h 5.0mph /  8km/h 17% 0.00in /  0mm 506.0 W/m2
09:14 66.2 °F /  19 °C 20.1 °F /  -6.6 °C 30.15in /  1020.9hPa ESE 0.9mph /  1.4km/h 3.0mph /  4.8km/h 17% 0.00in /  0mm 520.0 W/m2
09:20 66.6 °F /  19.2 °C 20.3 °F /  -6.5 °C 30.15in /  1020.9hPa Calm   3.0mph /  4.8km/h 17% 0.00in /  0mm 538.0 W/m2
09:26 66.9 °F /  19.4 °C 20.7 °F /  -6.3 °C 30.15in /  1020.9hPa Calm   5.0mph /  8km/h 17% 0.00in /  0mm 555.0 W/m2
09:32 67.6 °F /  19.8 °C 19.8 °F /  -6.8 °C 30.15in /  1020.9hPa NNE 0.9mph /  1.4km/h 6.0mph /  9.7km/h 16% 0.00in /  0mm 568.0 W/m2
09:38 68.4 °F /  20.2 °C 20.5 °F /  -6.4 °C 30.15in /  1020.9hPa ESE 0.9mph /  1.4km/h 6.0mph /  9.7km/h 16% 0.00in /  0mm 582.0 W/m2
09:44 68.7 °F /  20.4 °C 19.2 °F /  -7.1 °C 30.15in /  1020.9hPa East 4.0mph /  6.4km/h 6.0mph /  9.7km/h 15% 0.00in /  0mm 596.0 W/m2
09:50 69.3 °F /  20.7 °C 21.2 °F /  -6 °C 30.15in /  1020.9hPa NE 2.0mph /  3.2km/h 4.0mph /  6.4km/h 16% 0.00in /  0mm 610.0 W/m2
09:56 69.6 °F /  20.9 °C 19.9 °F /  -6.7 °C 30.15in /  1020.9hPa NE 2.9mph /  4.7km/h 4.0mph /  6.4km/h 15% 0.00in /  0mm 622.0 W/m2
10:02 70.2 °F /  21.2 °C 18.7 °F /  -7.4 °C 30.15in /  1020.9hPa NE 6.0mph /  9.7km/h 9.0mph /  14.5km/h 14% 0.00in /  0mm 635.0 W/m2
10:08 70.0 °F /  21.1 °C 18.5 °F /  -7.5 °C 30.15in /  1020.9hPa East 0.9mph /  1.4km/h 10.0mph /  16.1km/h 14% 0.00in /  0mm 645.0 W/m2
10:14 70.2 °F /  21.2 °C 18.7 °F /  -7.4 °C 30.15in /  1020.9hPa ENE 0.9mph /  1.4km/h 8.0mph /  12.9km/h 14% 0.00in /  0mm 656.0 W/m2
10:20 70.3 °F /  21.3 °C 18.9 °F /  -7.3 °C 30.14in /  1020.5hPa NNE 6.0mph /  9.7km/h 10.0mph /  16.1km/h 14% 0.00in /  0mm 666.0 W/m2
10:26 70.3 °F /  21.3 °C 20.5 °F /  -6.4 °C 30.14in /  1020.5hPa ESE 4.9mph /  7.9km/h 8.0mph /  12.9km/h 15% 0.00in /  0mm 675.0 W/m2
10:32 70.5 °F /  21.4 °C 20.7 °F /  -6.3 °C 30.14in /  1020.5hPa Calm   5.0mph /  8km/h 15% 0.00in /  0mm 686.0 W/m2
10:38 71.1 °F /  21.7 °C 19.4 °F /  -7 °C 30.14in /  1020.5hPa NE 2.9mph /  4.7km/h 7.0mph /  11.3km/h 14% 0.00in /  0mm 694.0 W/m2
10:44 71.2 °F /  21.8 °C 19.6 °F /  -6.9 °C 30.14in /  1020.5hPa Calm   8.0mph /  12.9km/h 14% 0.00in /  0mm 700.0 W/m2
10:50 71.8 °F /  22.1 °C 18.3 °F /  -7.6 °C 30.14in /  1020.5hPa ENE 2.0mph /  3.2km/h 8.0mph /  12.9km/h 13% 0.00in /  0mm 708.0 W/m2
10:56 72.0 °F /  22.2 °C 20.1 °F /  -6.6 °C 30.14in /  1020.5hPa ENE 2.0mph /  3.2km/h 9.0mph /  14.5km/h 14% 0.00in /  0mm 714.0 W/m2
11:02 72.1 °F /  22.3 °C 20.3 °F /  -6.5 °C 30.13in /  1020.2hPa ENE 2.9mph /  4.7km/h 5.0mph /  8km/h 14% 0.00in /  0mm 721.0 W/m2
11:08 72.1 °F /  22.3 °C 18.5 °F /  -7.5 °C 30.13in /  1020.2hPa Calm   7.0mph /  11.3km/h 13% 0.00in /  0mm 726.0 W/m2
11:14 72.0 °F /  22.2 °C 18.5 °F /  -7.5 °C 30.13in /  1020.2hPa Calm   5.0mph /  8km/h 13% 0.00in /  0mm 731.0 W/m2
11:20 72.1 °F /  22.3 °C 18.5 °F /  -7.5 °C 30.12in /  1019.9hPa NE 4.0mph /  6.4km/h 7.0mph /  11.3km/h 13% 0.00in /  0mm 735.0 W/m2
11:26 72.3 °F /  22.4 °C 18.7 °F /  -7.4 °C 30.12in /  1019.9hPa Calm   7.0mph /  11.3km/h 13% 0.00in /  0mm 737.0 W/m2
11:32 72.7 °F /  22.6 °C 20.7 °F /  -6.3 °C 30.12in /  1019.9hPa Calm   4.0mph /  6.4km/h 14% 0.00in /  0mm 740.0 W/m2
11:38 72.7 °F /  22.6 °C 19.0 °F /  -7.2 °C 30.12in /  1019.9hPa NNE 2.9mph /  4.7km/h 9.0mph /  14.5km/h 13% 0.00in /  0mm 740.0 W/m2
11:44 72.9 °F /  22.7 °C 19.2 °F /  -7.1 °C 30.11in /  1019.5hPa SSE 2.0mph /  3.2km/h 4.0mph /  6.4km/h 13% 0.00in /  0mm 744.0 W/m2
11:50 72.9 °F /  22.7 °C 19.2 °F /  -7.1 °C 30.11in /  1019.5hPa North 4.9mph /  7.9km/h 9.0mph /  14.5km/h 13% 0.00in /  0mm 747.0 W/m2
11:56 72.9 °F /  22.7 °C 19.2 °F /  -7.1 °C 30.11in /  1019.5hPa West 0.9mph /  1.4km/h 5.0mph /  8km/h 13% 0.00in /  0mm 744.0 W/m2
12:02 72.7 °F /  22.6 °C 19.0 °F /  -7.2 °C 30.11in /  1019.5hPa Calm   4.0mph /  6.4km/h 13% 0.00in /  0mm 745.0 W/m2
12:08 72.7 °F /  22.6 °C 19.0 °F /  -7.2 °C 30.10in /  1019.2hPa ENE 2.0mph /  3.2km/h 3.0mph /  4.8km/h 13% 0.00in /  0mm 742.0 W/m2
12:14 72.9 °F /  22.7 °C 19.2 °F /  -7.1 °C 30.10in /  1019.2hPa Calm   1.0mph /  1.6km/h 13% 0.00in /  0mm 744.0 W/m2
12:20 73.6 °F /  23.1 °C 19.8 °F /  -6.8 °C 30.10in /  1019.2hPa Calm   5.0mph /  8km/h 13% 0.00in /  0mm 737.0 W/m2
12:26 73.8 °F /  23.2 °C 18.0 °F /  -7.8 °C 30.09in /  1018.8hPa North 4.9mph /  7.9km/h 9.0mph /  14.5km/h 12% 0.00in /  0mm 735.0 W/m2
12:32 73.9 °F /  23.3 °C 18.1 °F /  -7.7 °C 30.09in /  1018.8hPa NNE 2.0mph /  3.2km/h 9.0mph /  14.5km/h 12% 0.00in /  0mm 729.0 W/m2
12:38 73.9 °F /  23.3 °C 18.1 °F /  -7.7 °C 30.09in /  1018.8hPa NE 6.0mph /  9.7km/h 6.0mph /  9.7km/h 12% 0.00in /  0mm 728.0 W/m2
12:44 74.1 °F /  23.4 °C 18.3 °F /  -7.6 °C 30.09in /  1018.8hPa East 0.9mph /  1.4km/h 6.0mph /  9.7km/h 12% 0.00in /  0mm 719.0 W/m2
12:50 74.1 °F /  23.4 °C 18.3 °F /  -7.6 °C 30.08in /  1018.5hPa Calm   6.0mph /  9.7km/h 12% 0.00in /  0mm 715.0 W/m2
12:56 74.1 °F /  23.4 °C 18.3 °F /  -7.6 °C 30.08in /  1018.5hPa Calm   7.0mph /  11.3km/h 12% 0.00in /  0mm 707.0 W/m2
13:02 74.5 °F /  23.6 °C 18.5 °F /  -7.5 °C 30.07in /  1018.2hPa NNE 2.0mph /  3.2km/h 5.0mph /  8km/h 12% 0.00in /  0mm 700.0 W/m2
13:08 74.7 °F /  23.7 °C 16.7 °F /  -8.5 °C 30.07in /  1018.2hPa East 0.9mph /  1.4km/h 5.0mph /  8km/h 11% 0.00in /  0mm 693.0 W/m2
13:14 74.8 °F /  23.8 °C 16.9 °F /  -8.4 °C 30.07in /  1018.2hPa Calm   5.0mph /  8km/h 11% 0.00in /  0mm 686.0 W/m2
13:20 74.7 °F /  23.7 °C 16.7 °F /  -8.5 °C 30.06in /  1017.8hPa ENE 2.9mph /  4.7km/h 9.0mph /  14.5km/h 11% 0.00in /  0mm 675.0 W/m2
13:26 74.5 °F /  23.6 °C 18.5 °F /  -7.5 °C 30.06in /  1017.8hPa SE 0.9mph /  1.4km/h 6.0mph /  9.7km/h 12% 0.00in /  0mm 666.0 W/m2
13:32 74.7 °F /  23.7 °C 16.7 °F /  -8.5 °C 30.06in /  1017.8hPa North 4.9mph /  7.9km/h 5.0mph /  8km/h 11% 0.00in /  0mm 656.0 W/m2
13:38 74.7 °F /  23.7 °C 16.7 °F /  -8.5 °C 30.06in /  1017.8hPa SE 4.0mph /  6.4km/h 6.0mph /  9.7km/h 11% 0.00in /  0mm 645.0 W/m2
13:44 74.7 °F /  23.7 °C 16.7 °F /  -8.5 °C 30.06in /  1017.8hPa Calm   2.0mph /  3.2km/h 11% 0.00in /  0mm 633.0 W/m2
13:50 74.7 °F /  23.7 °C 14.5 °F /  -9.7 °C 30.06in /  1017.8hPa Calm   4.0mph /  6.4km/h 10% 0.00in /  0mm 619.0 W/m2
13:56 74.8 °F /  23.8 °C 14.5 °F /  -9.7 °C 30.05in /  1017.5hPa Calm     10% 0.00in /  0mm 608.0 W/m2
14:02 75.0 °F /  23.9 °C 14.7 °F /  -9.6 °C 30.05in /  1017.5hPa ESE 2.0mph /  3.2km/h 5.0mph /  8km/h 10% 0.00in /  0mm 596.0 W/m2
14:08 75.0 °F /  23.9 °C 14.7 °F /  -9.6 °C 30.05in /  1017.5hPa South 2.0mph /  3.2km/h 3.0mph /  4.8km/h 10% 0.00in /  0mm 582.0 W/m2
14:14 75.0 °F /  23.9 °C 14.7 °F /  -9.6 °C 30.05in /  1017.5hPa Calm   1.0mph /  1.6km/h 10% 0.00in /  0mm 570.0 W/m2
14:20 75.0 °F /  23.9 °C 16.9 °F /  -8.4 °C 30.05in /  1017.5hPa Calm   1.0mph /  1.6km/h 11% 0.00in /  0mm 554.0 W/m2
14:26 74.8 °F /  23.8 °C 14.5 °F /  -9.7 °C 30.05in /  1017.5hPa Calm   4.0mph /  6.4km/h 10% 0.00in /  0mm 538.0 W/m2
14:32 74.8 °F /  23.8 °C 14.5 °F /  -9.7 °C 30.05in /  1017.5hPa NE 4.0mph /  6.4km/h 4.0mph /  6.4km/h 10% 0.00in /  0mm 522.0 W/m2
14:38 75.0 °F /  23.9 °C 14.7 °F /  -9.6 °C 30.05in /  1017.5hPa Calm   1.0mph /  1.6km/h 10% 0.00in /  0mm 506.0 W/m2
14:44 75.2 °F /  24 °C 14.9 °F /  -9.5 °C 30.05in /  1017.5hPa East 2.0mph /  3.2km/h 5.0mph /  8km/h 10% 0.00in /  0mm 490.0 W/m2
14:50 75.6 °F /  24.2 °C 15.1 °F /  -9.4 °C 30.05in /  1017.5hPa Calm   1.0mph /  1.6km/h 10% 0.00in /  0mm 471.0 W/m2
14:56 75.6 °F /  24.2 °C 15.1 °F /  -9.4 °C 30.05in /  1017.5hPa Calm   1.0mph /  1.6km/h 10% 0.00in /  0mm 455.0 W/m2
15:02 75.6 °F /  24.2 °C 15.1 °F /  -9.4 °C 30.05in /  1017.5hPa NNE 2.0mph /  3.2km/h 4.0mph /  6.4km/h 10% 0.00in /  0mm 438.0 W/m2
15:08 75.6 °F /  24.2 °C 15.1 °F /  -9.4 °C 30.05in /  1017.5hPa NE 2.9mph /  4.7km/h 5.0mph /  8km/h 10% 0.00in /  0mm 422.0 W/m2
15:14 75.4 °F /  24.1 °C 17.2 °F /  -8.2 °C 30.05in /  1017.5hPa East 2.9mph /  4.7km/h 7.0mph /  11.3km/h 11% 0.00in /  0mm 399.0 W/m2
15:20 75.0 °F /  23.9 °C 16.9 °F /  -8.4 °C 30.05in /  1017.5hPa ENE 4.0mph /  6.4km/h 6.0mph /  9.7km/h 11% 0.00in /  0mm 380.0 W/m2
15:26 74.3 °F /  23.5 °C 14.2 °F /  -9.9 °C 30.05in /  1017.5hPa Calm   3.0mph /  4.8km/h 10% 0.00in /  0mm 360.0 W/m2
15:32 73.8 °F /  23.2 °C 16.0 °F /  -8.9 °C 30.05in /  1017.5hPa SE 0.9mph /  1.4km/h 7.0mph /  11.3km/h 11% 0.00in /  0mm 339.0 W/m2
15:38 73.8 °F /  23.2 °C 16.0 °F /  -8.9 °C 30.05in /  1017.5hPa ESE 2.0mph /  3.2km/h 4.0mph /  6.4km/h 11% 0.00in /  0mm 232.0 W/m2
15:44 73.6 °F /  23.1 °C 15.8 °F /  -9 °C 30.05in /  1017.5hPa South 2.0mph /  3.2km/h 4.0mph /  6.4km/h 11% 0.00in /  0mm 42.0 W/m2
15:50 73.6 °F /  23.1 °C 15.8 °F /  -9 °C 30.05in /  1017.5hPa East 2.0mph /  3.2km/h 3.0mph /  4.8km/h 11% 0.00in /  0mm 39.0 W/m2
15:56 73.4 °F /  23 °C 15.6 °F /  -9.1 °C 30.05in /  1017.5hPa North 2.9mph /  4.7km/h 3.0mph /  4.8km/h 11% 0.00in /  0mm 37.0 W/m2
16:02 73.2 °F /  22.9 °C 15.6 °F /  -9.1 °C 30.05in /  1017.5hPa Calm   4.0mph /  6.4km/h 11% 0.00in /  0mm 35.0 W/m2
16:08 72.9 °F /  22.7 °C 15.3 °F /  -9.3 °C 30.05in /  1017.5hPa NNE 4.9mph /  7.9km/h 6.0mph /  9.7km/h 11% 0.00in /  0mm 32.0 W/m2
16:14 72.5 °F /  22.5 °C 15.1 °F /  -9.4 °C 30.06in /  1017.8hPa Calm   5.0mph /  8km/h 11% 0.00in /  0mm 28.0 W/m2
16:20 72.1 °F /  22.3 °C 14.7 °F /  -9.6 °C 30.06in /  1017.8hPa SE 2.0mph /  3.2km/h 4.0mph /  6.4km/h 11% 0.00in /  0mm 26.0 W/m2
16:26 72.0 °F /  22.2 °C 14.5 °F /  -9.7 °C 30.06in /  1017.8hPa NNE 2.9mph /  4.7km/h 3.0mph /  4.8km/h 11% 0.00in /  0mm 26.0 W/m2
16:32 71.6 °F /  22 °C 16.3 °F /  -8.7 °C 30.06in /  1017.8hPa Calm   3.0mph /  4.8km/h 12% 0.00in /  0mm 23.0 W/m2
16:38 71.2 °F /  21.8 °C 14.0 °F /  -10 °C 30.06in /  1017.8hPa NE 0.9mph /  1.4km/h 1.0mph /  1.6km/h 11% 0.00in /  0mm 19.0 W/m2
16:44 70.9 °F /  21.6 °C 15.8 °F /  -9 °C 30.06in /  1017.8hPa NNE 2.9mph /  4.7km/h 4.0mph /  6.4km/h 12% 0.00in /  0mm 39.0 W/m2
16:50 70.5 °F /  21.4 °C 15.4 °F /  -9.2 °C 30.07in /  1018.2hPa Calm   2.0mph /  3.2km/h 12% 0.00in /  0mm 18.0 W/m2
16:56 70.2 °F /  21.2 °C 17.1 °F /  -8.3 °C 30.07in /  1018.2hPa Calm     13% 0.00in /  0mm 18.0 W/m2
17:02 70.0 °F /  21.1 °C 18.5 °F /  -7.5 °C 30.07in /  1018.2hPa Calm   1.0mph /  1.6km/h 14% 0.00in /  0mm 14.0 W/m2
17:08 69.3 °F /  20.7 °C 16.3 °F /  -8.7 °C 30.07in /  1018.2hPa NE 2.0mph /  3.2km/h 2.0mph /  3.2km/h 13% 0.00in /  0mm 12.0 W/m2
17:14 68.5 °F /  20.3 °C 19.0 °F /  -7.2 °C 30.07in /  1018.2hPa Calm     15% 0.00in /  0mm 9.0 W/m2
17:20 68.2 °F /  20.1 °C 18.7 °F /  -7.4 °C 30.07in /  1018.2hPa Calm     15% 0.00in /  0mm 7.0 W/m2
17:26 67.5 °F /  19.7 °C 18.1 °F /  -7.7 °C 30.08in /  1018.5hPa Calm   1.0mph /  1.6km/h 15% 0.00in /  0mm 0.0 W/m2
17:32 66.6 °F /  19.2 °C 17.4 °F /  -8.1 °C 30.08in /  1018.5hPa Calm     15% 0.00in /  0mm 0.0 W/m2
17:38 65.7 °F /  18.7 °C 16.7 °F /  -8.5 °C 30.08in /  1018.5hPa Calm     15% 0.00in /  0mm 0.0 W/m2
17:44 64.9 °F /  18.3 °C 16.2 °F /  -8.8 °C 30.08in /  1018.5hPa Calm     15% 0.00in /  0mm 0.0 W/m2
17:50 64.0 °F /  17.8 °C 16.9 °F /  -8.4 °C 30.08in /  1018.5hPa Calm     16% 0.00in /  0mm 0.0 W/m2
17:57 63.1 °F /  17.3 °C 16.2 °F /  -8.8 °C 30.09in /  1018.8hPa Calm     16% 0.00in /  0mm 0.0 W/m2
18:03 62.4 °F /  16.9 °C 17.1 °F /  -8.3 °C 30.09in /  1018.8hPa Calm     17% 0.00in /  0mm 0.0 W/m2
18:09 61.9 °F /  16.6 °C 16.5 °F /  -8.6 °C 30.09in /  1018.8hPa Calm     17% 0.00in /  0mm 0.0 W/m2
18:15 61.2 °F /  16.2 °C 16.0 °F /  -8.9 °C 30.09in /  1018.8hPa Calm   1.0mph /  1.6km/h 17% 0.00in /  0mm 0.0 W/m2
18:21 60.4 °F /  15.8 °C 15.4 °F /  -9.2 °C 30.09in /  1018.8hPa Calm     17% 0.00in /  0mm 0.0 W/m2
18:27 59.7 °F /  15.4 °C 16.2 °F /  -8.8 °C 30.10in /  1019.2hPa Calm     18% 0.00in /  0mm 0.0 W/m2
18:33 59.2 °F /  15.1 °C 15.6 °F /  -9.1 °C 30.10in /  1019.2hPa Calm   1.0mph /  1.6km/h 18% 0.00in /  0mm 0.0 W/m2
18:39 58.6 °F /  14.8 °C 16.5 °F /  -8.6 °C 30.10in /  1019.2hPa Calm   1.0mph /  1.6km/h 19% 0.00in /  0mm 0.0 W/m2
18:45 58.1 °F /  14.5 °C 16.0 °F /  -8.9 °C 30.10in /  1019.2hPa ENE 0.9mph /  1.4km/h 1.0mph /  1.6km/h 19% 0.00in /  0mm 0.0 W/m2
18:51 57.6 °F /  14.2 °C 15.6 °F /  -9.1 °C 30.10in /  1019.2hPa Calm   1.0mph /  1.6km/h 19% 0.00in /  0mm 0.0 W/m2
18:57 57.0 °F /  13.9 °C 15.1 °F /  -9.4 °C 30.10in /  1019.2hPa Calm   3.0mph /  4.8km/h 19% 0.00in /  0mm 0.0 W/m2
19:03 56.8 °F /  13.8 °C 16.2 °F /  -8.8 °C 30.11in /  1019.5hPa East 0.9mph /  1.4km/h 3.0mph /  4.8km/h 20% 0.00in /  0mm 0.0 W/m2
19:09 56.7 °F /  13.7 °C 16.0 °F /  -8.9 °C 30.11in /  1019.5hPa East 0.9mph /  1.4km/h 3.0mph /  4.8km/h 20% 0.00in /  0mm 0.0 W/m2
19:15 56.7 °F /  13.7 °C 16.0 °F /  -8.9 °C 30.11in /  1019.5hPa Calm   4.0mph /  6.4km/h 20% 0.00in /  0mm 0.0 W/m2
19:21 56.7 °F /  13.7 °C 16.0 °F /  -8.9 °C 30.11in /  1019.5hPa Calm   1.0mph /  1.6km/h 20% 0.00in /  0mm 0.0 W/m2
19:27 56.5 °F /  13.6 °C 15.8 °F /  -9 °C 30.11in /  1019.5hPa Calm     20% 0.00in /  0mm 0.0 W/m2
19:34 56.1 °F /  13.4 °C 15.6 °F /  -9.1 °C 30.11in /  1019.5hPa Calm   1.0mph /  1.6km/h 20% 0.00in /  0mm 0.0 W/m2
19:40 55.8 °F /  13.2 °C 15.3 °F /  -9.3 °C 30.11in /  1019.5hPa Calm   1.0mph /  1.6km/h 20% 0.00in /  0mm 0.0 W/m2
19:46 55.6 °F /  13.1 °C 15.1 °F /  -9.4 °C 30.11in /  1019.5hPa Calm   1.0mph /  1.6km/h 20% 0.00in /  0mm 0.0 W/m2
19:52 55.2 °F /  12.9 °C 14.9 °F /  -9.5 °C 30.12in /  1019.9hPa Calm   3.0mph /  4.8km/h 20% 0.00in /  0mm 0.0 W/m2
19:58 55.2 °F /  12.9 °C 16.0 °F /  -8.9 °C 30.12in /  1019.9hPa Calm     21% 0.00in /  0mm 0.0 W/m2
20:04 55.0 °F /  12.8 °C 15.8 °F /  -9 °C 30.12in /  1019.9hPa Calm     21% 0.00in /  0mm 0.0 W/m2
20:10 54.7 °F /  12.6 °C 15.4 °F /  -9.2 °C 30.12in /  1019.9hPa Calm   1.0mph /  1.6km/h 21% 0.00in /  0mm 0.0 W/m2
20:17 54.5 °F /  12.5 °C 15.3 °F /  -9.3 °C 30.12in /  1019.9hPa Calm   3.0mph /  4.8km/h 21% 0.00in /  0mm 0.0 W/m2
20:23 54.3 °F /  12.4 °C 15.3 °F /  -9.3 °C 30.12in /  1019.9hPa Calm   4.0mph /  6.4km/h 21% 0.00in /  0mm 0.0 W/m2
20:29 54.1 °F /  12.3 °C 15.1 °F /  -9.4 °C 30.12in /  1019.9hPa Calm     21% 0.00in /  0mm 0.0 W/m2
20:35 54.1 °F /  12.3 °C 15.1 °F /  -9.4 °C 30.13in /  1020.2hPa Calm   4.0mph /  6.4km/h 21% 0.00in /  0mm 0.0 W/m2
20:41 54.0 °F /  12.2 °C 14.9 °F /  -9.5 °C 30.13in /  1020.2hPa Calm   3.0mph /  4.8km/h 21% 0.00in /  0mm 0.0 W/m2
20:47 54.0 °F /  12.2 °C 14.9 °F /  -9.5 °C 30.13in /  1020.2hPa Calm   3.0mph /  4.8km/h 21% 0.00in /  0mm 0.0 W/m2
20:53 53.8 °F /  12.1 °C 14.7 °F /  -9.6 °C 30.13in /  1020.2hPa Calm   2.0mph /  3.2km/h 21% 0.00in /  0mm 0.0 W/m2
20:59 53.8 °F /  12.1 °C 15.8 °F /  -9 °C 30.13in /  1020.2hPa Calm   3.0mph /  4.8km/h 22% 0.00in /  0mm 0.0 W/m2
21:05 53.4 °F /  11.9 °C 15.4 °F /  -9.2 °C 30.13in /  1020.2hPa Calm   2.0mph /  3.2km/h 22% 0.00in /  0mm 0.0 W/m2
21:12 53.4 °F /  11.9 °C 15.4 °F /  -9.2 °C 30.14in /  1020.5hPa Calm   2.0mph /  3.2km/h 22% 0.00in /  0mm 0.0 W/m2
21:18 53.2 °F /  11.8 °C 15.4 °F /  -9.2 °C 30.14in /  1020.5hPa ENE 0.9mph /  1.4km/h 2.0mph /  3.2km/h 22% 0.00in /  0mm 0.0 W/m2
21:24 53.4 °F /  11.9 °C 15.4 °F /  -9.2 °C 30.14in /  1020.5hPa Calm   1.0mph /  1.6km/h 22% 0.00in /  0mm 0.0 W/m2
21:30 53.4 °F /  11.9 °C 15.4 °F /  -9.2 °C 30.14in /  1020.5hPa Calm   1.0mph /  1.6km/h 22% 0.00in /  0mm 0.0 W/m2
21:36 53.2 °F /  11.8 °C 15.4 °F /  -9.2 °C 30.14in /  1020.5hPa Calm   2.0mph /  3.2km/h 22% 0.00in /  0mm 0.0 W/m2
21:42 53.2 °F /  11.8 °C 15.4 °F /  -9.2 °C 30.14in /  1020.5hPa Calm   2.0mph /  3.2km/h 22% 0.00in /  0mm 0.0 W/m2
21:48 53.2 °F /  11.8 °C 15.4 °F /  -9.2 °C 30.14in /  1020.5hPa ENE 0.9mph /  1.4km/h 3.0mph /  4.8km/h 22% 0.00in /  0mm 0.0 W/m2
21:54 53.2 °F /  11.8 °C 15.4 °F /  -9.2 °C 30.14in /  1020.5hPa Calm   2.0mph /  3.2km/h 22% 0.00in /  0mm 0.0 W/m2
22:00 53.2 °F /  11.8 °C 15.4 °F /  -9.2 °C 30.14in /  1020.5hPa Calm     22% 0.00in /  0mm 0.0 W/m2
22:07 53.1 °F /  11.7 °C 15.3 °F /  -9.3 °C 30.14in /  1020.5hPa Calm     22% 0.00in /  0mm 0.0 W/m2
22:13 52.7 °F /  11.5 °C 14.9 °F /  -9.5 °C 30.14in /  1020.5hPa Calm   1.0mph /  1.6km/h 22% 0.00in /  0mm 0.0 W/m2
22:19 52.5 °F /  11.4 °C 14.7 °F /  -9.6 °C 30.14in /  1020.5hPa Calm     22% 0.00in /  0mm 0.0 W/m2
22:25 52.2 °F /  11.2 °C 15.4 °F /  -9.2 °C 30.14in /  1020.5hPa Calm     23% 0.00in /  0mm 0.0 W/m2
22:31 51.8 °F /  11 °C 15.1 °F /  -9.4 °C 30.14in /  1020.5hPa Calm     23% 0.00in /  0mm 0.0 W/m2
22:37 51.3 °F /  10.7 °C 15.6 °F /  -9.1 °C 30.14in /  1020.5hPa Calm     24% 0.00in /  0mm 0.0 W/m2
22:43 50.7 °F /  10.4 °C 15.3 °F /  -9.3 °C 30.14in /  1020.5hPa Calm     24% 0.00in /  0mm 0.0 W/m2
22:49 50.2 °F /  10.1 °C 15.6 °F /  -9.1 °C 30.14in /  1020.5hPa Calm     25% 0.00in /  0mm 0.0 W/m2
22:55 49.6 °F /  9.8 °C 15.3 °F /  -9.3 °C 30.14in /  1020.5hPa Calm     25% 0.00in /  0mm 0.0 W/m2
23:02 49.3 °F /  9.6 °C 15.8 °F /  -9 °C 30.14in /  1020.5hPa Calm     26% 0.00in /  0mm 0.0 W/m2
23:08 48.7 °F /  9.3 °C 15.4 °F /  -9.2 °C 30.14in /  1020.5hPa Calm     26% 0.00in /  0mm 0.0 W/m2
23:14 48.4 °F /  9.1 °C 16.0 °F /  -8.9 °C 30.14in /  1020.5hPa Calm     27% 0.00in /  0mm 0.0 W/m2
23:20 48.0 °F /  8.9 °C 15.6 °F /  -9.1 °C 30.14in /  1020.5hPa Calm     27% 0.00in /  0mm 0.0 W/m2
23:26 47.7 °F /  8.7 °C 16.2 °F /  -8.8 °C 30.14in /  1020.5hPa Calm     28% 0.00in /  0mm 0.0 W/m2
23:32 47.3 °F /  8.5 °C 15.8 °F /  -9 °C 30.14in /  1020.5hPa Calm     28% 0.00in /  0mm 0.0 W/m2
23:38 46.9 °F /  8.3 °C 15.4 °F /  -9.2 °C 30.14in /  1020.5hPa Calm     28% 0.00in /  0mm 0.0 W/m2
23:44 46.8 °F /  8.2 °C 16.2 °F /  -8.8 °C 30.14in /  1020.5hPa Calm     29% 0.00in /  0mm 0.0 W/m2
23:50 46.6 °F /  8.1 °C 16.0 °F /  -8.9 °C 30.14in /  1020.5hPa Calm     29% 0.00in /  0mm 0.0 W/m2
23:57 46.6 °F /  8.1 °C 16.0 °F /  -8.9 °C 30.14in /  1020.5hPa Calm     29% 0.00in /  0mm 0.0 W/m2
Olympia, Windhoek, Namibia
Compliments of Weather Underground - 3 mb